Time;durP1;ratioP1;P1;durP2;ratioP2;P2;SDS_P1;SDS_P2;PMS_P1;PMS_P2;Temp;Humidity;BMP_temperature;BMP_pressure;BME280_temperature;BME280_humidity;BME280_pressure;Samples;Min_cycle;Max_cycle;Signal;HPM_P1;HPM_P2
2023/01/15 00:01:43;;;;;;;11.90;6.55;;;;;;;12.78;52.17;99052.28;5055518;28;20399;-73
2023/01/15 00:04:11;;;;;;;9.93;6.22;;;;;;;12.74;52.21;99050.75;5073554;28;20025;-73
2023/01/15 00:06:39;;;;;;;11.90;6.85;;;;;;;12.72;52.64;99047.31;5055672;28;20115;-73
2023/01/15 00:09:05;;;;;;;9.52;5.30;;;;;;;12.73;52.35;99034.09;5055702;28;20039;-75
2023/01/15 00:11:31;;;;;;;9.07;5.55;;;;;;;12.78;52.14;99036.47;5056445;28;20032;-73
2023/01/15 00:13:57;;;;;;;12.85;6.15;;;;;;;12.76;52.11;99038.34;5073394;28;20430;-73
2023/01/15 00:16:24;;;;;;;12.23;6.20;;;;;;;12.86;52.08;99036.94;5055319;28;20452;-72
2023/01/15 00:19:00;;;;;;;11.63;5.50;;;;;;;12.78;52.18;99036.47;5055775;28;20032;-73
2023/01/15 00:21:27;;;;;;;9.25;4.47;;;;;;;12.86;52.03;99021.13;5035288;28;20395;-73
2023/01/15 00:29:23;;;;;;;10.00;4.85;;;;;;;12.92;51.65;99027.84;5053479;28;20127;-72
2023/01/15 00:31:51;;;;;;;9.50;4.95;;;;;;;12.82;51.88;99028.34;5041749;28;20045;-72
2023/01/15 00:34:17;;;;;;;8.10;4.30;;;;;;;12.86;52.10;99039.56;5058308;28;20468;-73
2023/01/15 00:36:42;;;;;;;8.05;4.05;;;;;;;12.84;52.16;99038.78;5057631;28;20044;-72
2023/01/15 00:39:08;;;;;;;10.52;3.85;;;;;;;12.95;51.83;99054.91;5075489;28;20093;-71
2023/01/15 00:41:33;;;;;;;9.48;4.22;;;;;;;12.94;51.94;99053.19;5058103;28;20039;-71
2023/01/15 00:43:59;;;;;;;8.43;3.88;;;;;;;12.92;52.01;99060.31;5076276;28;20047;-72
2023/01/15 00:46:24;;;;;;;9.48;3.80;;;;;;;12.97;51.72;99058.31;5076754;28;20445;-71
2023/01/15 00:48:50;;;;;;;6.40;3.75;;;;;;;12.88;52.05;99052.66;5076671;28;20033;-72
2023/01/15 00:51:15;;;;;;;8.43;4.18;;;;;;;12.97;51.97;99031.09;5076111;28;20036;-72
2023/01/15 00:53:41;;;;;;;8.55;3.63;;;;;;;12.84;52.56;99030.88;5058695;28;20031;-71
2023/01/15 00:56:07;;;;;;;7.57;3.70;;;;;;;12.91;52.28;99027.00;5075359;28;20089;-71
2023/01/15 00:58:32;;;;;;;5.82;3.20;;;;;;;12.99;52.34;99005.50;5076707;28;20111;-72
2023/01/15 01:00:59;;;;;;;6.82;3.10;;;;;;;12.83;52.71;99001.03;5076731;28;20115;-72
2023/01/15 01:03:25;;;;;;;6.50;3.22;;;;;;;12.86;52.63;98988.63;5075679;28;20048;-71
2023/01/15 01:05:51;;;;;;;7.43;3.30;;;;;;;12.92;52.69;98983.88;5058670;28;20032;-72
2023/01/15 01:08:18;;;;;;;6.88;3.22;;;;;;;12.86;52.88;98951.75;5075733;28;20487;-71
2023/01/15 01:10:43;;;;;;;6.93;3.30;;;;;;;12.80;52.93;98940.56;5042022;28;20035;-72
2023/01/15 01:13:09;;;;;;;6.20;3.17;;;;;;;12.81;53.02;98944.09;5058710;28;20028;-72
2023/01/15 01:15:36;;;;;;;6.05;2.88;;;;;;;12.92;52.53;98944.31;5056741;28;20036;-72
2023/01/15 01:18:03;;;;;;;5.60;2.63;;;;;;;12.92;52.62;98948.75;5058277;28;20111;-72
2023/01/15 01:20:28;;;;;;;5.80;2.80;;;;;;;12.96;52.53;98935.31;5057998;28;20064;-73
2023/01/15 01:22:54;;;;;;;5.93;2.42;;;;;;;13.01;52.24;98937.72;5075473;28;20150;-72
2023/01/15 01:25:20;;;;;;;5.35;2.50;;;;;;;12.97;52.41;98937.03;5074980;28;20036;-71
2023/01/15 01:27:46;;;;;;;9.10;2.47;;;;;;;12.78;52.68;98920.53;5076401;28;20037;-72
2023/01/15 01:30:13;;;;;;;5.68;2.78;;;;;;;12.85;52.74;98931.56;5057678;28;20045;-73
2023/01/15 01:32:39;;;;;;;5.60;2.75;;;;;;;12.81;52.95;98930.91;5058253;28;20071;-73
2023/01/15 01:35:05;;;;;;;7.57;2.78;;;;;;;12.99;52.47;98914.06;5057676;28;20030;-72
2023/01/15 01:37:30;;;;;;;5.13;2.30;;;;;;;13.01;52.51;98914.84;5040821;28;20044;-73
2023/01/15 01:39:56;;;;;;;6.30;2.50;;;;;;;12.92;52.94;98920.59;5075976;28;20047;-73
2023/01/15 01:42:22;;;;;;;7.32;2.50;;;;;;;13.01;52.63;98914.00;5073818;28;20036;-72
2023/01/15 01:44:50;;;;;;;6.28;2.53;;;;;;;11.78;55.40;98894.06;5071539;28;20150;-73
2023/01/15 01:47:34;;;;;;;5.65;2.50;;;;;;;11.94;56.41;98883.63;5072548;28;20102;-75
2023/01/15 01:50:06;;;;;;;7.57;2.80;;;;;;;12.65;54.03;98858.88;5052416;28;20123;-71
2023/01/15 01:52:58;;;;;;;5.80;2.40;;;;;;;12.96;53.22;98850.97;5057937;28;20376;-72
2023/01/15 01:55:25;;;;;;;4.38;2.50;;;;;;;11.73;55.87;98866.25;5053115;28;20071;-71
2023/01/15 01:57:53;;;;;;;6.55;2.40;;;;;;;11.89;56.52;98872.50;5040352;28;20048;-72
2023/01/15 02:00:19;;;;;;;4.40;2.20;;;;;;;11.35;57.14;98851.44;5054486;28;20048;-71
2023/01/15 02:02:48;;;;;;;5.20;2.13;;;;;;;11.34;57.22;98854.16;5024452;28;20040;-72
2023/01/15 02:05:28;;;;;;;6.40;2.67;;;;;;;11.72;57.34;98833.81;5038204;28;20059;-72
2023/01/15 02:07:54;;;;;;;4.68;2.67;;;;;;;12.61;54.29;98833.59;5075609;28;20028;-72
2023/01/15 02:10:19;;;;;;;5.40;2.70;;;;;;;12.83;53.43;98828.84;5056370;28;20029;-72
2023/01/15 02:13:12;;;;;;;6.10;2.47;;;;;;;12.82;53.08;98827.16;5074550;28;20115;-72
2023/01/15 02:15:44;;;;;;;5.80;2.00;;;;;;;12.88;52.94;98832.09;5074014;28;20079;-72
2023/01/15 02:18:30;;;;;;;4.90;2.00;;;;;;;12.62;53.71;98811.59;5075556;28;20063;-72
2023/01/15 02:21:09;;;;;;;3.47;1.95;;;;;;;11.25;56.56;98813.41;5056833;28;20047;-72
2023/01/15 02:23:40;;;;;;;7.38;2.38;;;;;;;11.23;56.86;98817.03;5073649;28;20127;-72
2023/01/15 02:26:06;;;;;;;7.22;2.10;;;;;;;11.22;56.94;98815.34;5057323;28;20024;-72
2023/01/15 02:28:36;;;;;;;2.90;1.60;;;;;;;11.48;56.07;98812.25;5074481;28;20098;-72
2023/01/15 02:31:31;;;;;;;6.10;2.05;;;;;;;11.29;56.07;98800.94;5075126;28;20443;-72
2023/01/15 02:34:15;;;;;;;4.82;1.90;;;;;;;11.34;56.07;98804.22;5074873;28;20036;-72
2023/01/15 02:36:47;;;;;;;6.68;1.70;;;;;;;11.45;55.97;98801.91;5039976;28;20039;-72
2023/01/15 02:39:15;;;;;;;4.53;2.07;;;;;;;11.82;55.79;98792.13;5053903;28;20067;-72
2023/01/15 02:41:46;;;;;;;4.35;1.98;;;;;;;11.43;56.06;98795.84;5049747;28;20768;-72
2023/01/15 02:44:14;;;;;;;5.22;1.95;;;;;;;11.51;55.83;98788.41;5036966;28;20025;-72
2023/01/15 02:46:42;;;;;;;3.33;1.70;;;;;;;11.44;55.89;98789.66;5061759;28;20039;-72
2023/01/15 02:49:11;;;;;;;4.30;1.42;;;;;;;11.31;56.00;98781.53;5056396;28;20039;-72
2023/01/15 02:51:47;;;;;;;4.68;1.60;;;;;;;11.43;55.69;98784.47;5055779;28;20039;-73
2023/01/15 02:54:15;;;;;;;6.38;2.10;;;;;;;11.54;55.71;98782.16;5055510;28;20059;-72
2023/01/15 02:56:44;;;;;;;5.07;1.90;;;;;;;11.55;55.64;98782.06;5056966;28;20028;-70
2023/01/15 02:59:19;;;;;;;5.63;1.90;;;;;;;11.56;55.56;98781.13;5037162;28;20052;-72
2023/01/15 03:01:52;;;;;;;4.88;1.85;;;;;;;11.55;55.49;98765.44;5054741;28;20071;-72
2023/01/15 03:04:31;;;;;;;3.90;1.50;;;;;;;11.61;55.37;98762.50;5056909;28;20029;-72
2023/01/15 03:07:13;;;;;;;4.93;1.70;;;;;;;11.62;55.15;98763.38;5056194;28;20040;-71
2023/01/15 03:09:39;;;;;;;3.60;1.50;;;;;;;11.63;55.20;98770.31;5056695;28;20119;-72
2023/01/15 03:12:25;;;;;;;6.82;2.10;;;;;;;11.60;54.92;98755.53;5073442;28;20124;-72
2023/01/15 03:16:33;;;;;;;4.28;1.88;;;;;;;12.03;54.59;98763.84;5074191;28;20044;-72
2023/01/15 03:18:00;;;;;;;3.92;1.70;;;;;;;11.63;55.28;98752.75;5072216;28;20129;-72
2023/01/15 03:20:28;;;;;;;3.30;1.80;;;;;;;11.59;55.43;98752.06;5039787;28;20071;-72
2023/01/15 03:23:05;;;;;;;3.30;1.40;;;;;;;11.60;55.40;98740.59;5073962;28;20078;-72
2023/01/15 03:25:38;;;;;;;3.45;1.20;;;;;;;11.39;56.48;98741.72;5045081;28;20054;-72
2023/01/15 03:28:04;;;;;;;3.67;1.60;;;;;;;11.55;56.38;98747.88;5036228;28;20036;-72
2023/01/15 03:30:30;;;;;;;4.80;1.55;;;;;;;11.52;56.36;98741.91;5043839;28;20127;-72
2023/01/15 03:32:56;;;;;;;4.05;1.70;;;;;;;11.55;56.54;98741.78;5073831;28;20119;-72
2023/01/15 03:35:46;;;;;;;6.55;1.75;;;;;;;11.48;56.63;98735.13;5055294;28;20086;-72
2023/01/15 03:38:14;;;;;;;3.60;1.42;;;;;;;11.55;56.51;98737.34;5053832;28;20029;-72
2023/01/15 03:40:50;;;;;;;4.03;1.27;;;;;;;11.58;56.36;98731.94;5053955;28;20033;-72
2023/01/15 03:46:12;;;;;;;2.78;1.42;;;;;;;11.48;56.65;98743.00;5058456;28;20043;-72
2023/01/15 03:49:06;;;;;;;3.28;1.35;;;;;;;11.60;56.20;98745.84;5055752;28;20021;-72
2023/01/15 03:52:01;;;;;;;2.88;1.33;;;;;;;11.53;56.82;98751.50;5055633;28;20036;-72
2023/01/15 03:54:37;;;;;;;4.07;1.25;;;;;;;11.46;57.02;98744.88;5054900;28;20025;-72
2023/01/15 03:57:12;;;;;;;4.30;1.63;;;;;;;11.45;57.11;98740.53;5055582;28;20454;-73
2023/01/15 03:59:49;;;;;;;4.45;1.35;;;;;;;11.47;57.23;98750.06;5055090;28;20031;-72
2023/01/15 04:02:17;;;;;;;6.05;1.60;;;;;;;11.49;57.23;98756.09;5073836;28;20082;-73
2023/01/15 04:04:45;;;;;;;3.72;1.60;;;;;;;11.35;58.25;98756.78;5053751;28;20045;-72
2023/01/15 04:07:11;;;;;;;3.28;1.42;;;;;;;11.47;58.06;98750.06;5039060;28;20053;-72
2023/01/15 04:09:38;;;;;;;3.28;1.50;;;;;;;11.45;58.43;98737.91;5055892;28;20042;-72
2023/01/15 04:12:04;;;;;;;2.55;1.10;;;;;;;11.44;58.50;98739.69;5054020;28;20032;-72
2023/01/15 04:14:31;;;;;;;3.58;1.50;;;;;;;11.54;58.55;98727.78;5038008;28;20028;-72
2023/01/15 04:16:56;;;;;;;3.38;1.40;;;;;;;11.43;59.06;98732.72;5055631;28;20037;-72
2023/01/15 04:19:22;;;;;;;4.05;1.55;;;;;;;11.42;59.20;98720.53;5055642;28;20070;-73
2023/01/15 04:21:47;;;;;;;4.85;1.50;;;;;;;11.34;59.75;98718.28;5057600;28;20043;-72
2023/01/15 04:24:13;;;;;;;6.63;1.52;;;;;;;11.31;59.95;98712.31;5072217;28;20438;-72
2023/01/15 04:26:41;;;;;;;5.28;1.70;;;;;;;12.34;57.91;98705.13;5054726;28;20063;-72
2023/01/15 04:29:07;;;;;;;6.40;1.70;;;;;;;12.57;56.87;98695.94;5039066;28;20056;-72
2023/01/15 04:31:34;;;;;;;2.97;1.60;;;;;;;12.80;56.06;98702.50;5037629;28;20099;-72
2023/01/15 04:34:00;;;;;;;3.55;1.42;;;;;;;12.94;55.49;98696.47;5071351;28;20043;-72
2023/01/15 04:36:26;;;;;;;5.88;2.00;;;;;;;13.02;55.26;98681.88;5054703;28;20082;-72
2023/01/15 04:38:53;;;;;;;3.97;1.60;;;;;;;12.94;55.52;98681.50;5073079;28;20044;-72
2023/01/15 04:44:05;;;;;;;5.10;1.58;;;;;;;12.90;55.75;98673.84;5057682;28;20491;-72
2023/01/15 04:46:36;;;;;;;2.90;1.75;;;;;;;13.02;55.30;98671.34;5054205;28;20041;-72
2023/01/15 04:49:02;;;;;;;3.55;1.70;;;;;;;13.10;55.19;98678.81;5035121;28;20116;-72
2023/01/15 04:51:28;;;;;;;2.75;1.23;;;;;;;13.02;55.52;98675.78;5087181;28;20044;-72
2023/01/15 04:53:53;;;;;;;2.72;1.38;;;;;;;13.05;55.42;98675.59;5055289;28;20029;-72
2023/01/15 04:56:19;;;;;;;2.53;1.25;;;;;;;13.11;55.25;98664.69;5072836;28;20037;-72
2023/01/15 04:58:44;;;;;;;5.22;1.52;;;;;;;13.18;55.23;98668.66;5054031;28;20051;-72
2023/01/15 05:01:16;;;;;;;4.45;1.20;;;;;;;13.16;55.32;98661.75;5073131;28;20101;-72
2023/01/15 05:03:42;;;;;;;4.82;1.35;;;;;;;13.27;55.00;98659.38;5054565;28;20036;-71
2023/01/15 05:06:08;;;;;;;3.47;1.23;;;;;;;13.13;55.36;98678.63;5054393;28;20028;-72
2023/01/15 05:08:34;;;;;;;4.35;1.50;;;;;;;13.14;55.36;98685.59;5053969;28;20479;-72
2023/01/15 05:11:02;;;;;;;3.20;1.15;;;;;;;13.10;55.61;98675.31;5055138;28;20028;-72
2023/01/15 05:13:28;;;;;;;2.22;1.10;;;;;;;13.10;55.67;98667.41;5054406;28;20401;-71
2023/01/15 05:15:54;;;;;;;2.83;1.40;;;;;;;13.09;55.58;98669.22;5056014;28;20387;-72
2023/01/15 05:18:20;;;;;;;2.70;1.30;;;;;;;13.16;55.47;98667.03;5075706;28;20029;-71
2023/01/15 05:20:45;;;;;;;2.17;1.27;;;;;;;13.14;55.65;98658.38;5076551;28;20501;-72
2023/01/15 05:23:11;;;;;;;3.67;1.40;;;;;;;13.24;55.40;98649.00;5075965;28;20028;-72
2023/01/15 05:25:36;;;;;;;3.95;1.70;;;;;;;13.22;55.49;98656.13;5075813;28;20037;-72
2023/01/15 05:28:02;;;;;;;4.10;1.70;;;;;;;13.21;55.74;98657.09;5056978;28;20024;-72
2023/01/15 05:30:27;;;;;;;3.67;1.50;;;;;;;13.13;55.93;98656.69;5075563;28;20048;-72
2023/01/15 05:32:53;;;;;;;3.63;1.70;;;;;;;13.15;55.70;98649.53;5073605;28;20040;-72
2023/01/15 05:35:18;;;;;;;3.03;1.50;;;;;;;13.10;56.09;98641.91;5075597;28;20487;-72
2023/01/15 05:37:44;;;;;;;4.53;1.73;;;;;;;13.22;55.78;98630.59;5077603;28;20040;-72
2023/01/15 05:40:10;;;;;;;2.60;1.33;;;;;;;13.22;55.94;98627.13;5072416;28;20024;-72
2023/01/15 05:42:35;;;;;;;3.97;1.60;;;;;;;13.22;55.97;98627.13;5082868;28;20047;-71
2023/01/15 05:45:01;;;;;;;2.83;1.50;;;;;;;13.21;56.12;98639.47;5059271;28;20032;-71
2023/01/15 05:47:26;;;;;;;2.03;1.23;;;;;;;13.24;56.12;98638.44;5076060;28;20032;-72
2023/01/15 05:49:51;;;;;;;3.42;1.40;;;;;;;13.28;56.00;98645.25;5073239;28;20037;-72
2023/01/15 05:52:17;;;;;;;3.00;1.40;;;;;;;13.29;56.09;98641.69;5063622;28;20028;-71
2023/01/15 05:54:43;;;;;;;2.63;1.30;;;;;;;13.28;56.20;98629.41;5082166;28;20048;-72
2023/01/15 05:57:11;;;;;;;3.30;1.20;;;;;;;13.33;56.35;98635.28;5074156;28;20040;-72
2023/01/15 05:59:37;;;;;;;3.75;1.70;;;;;;;13.37;56.22;98635.94;5056603;28;20067;-72
2023/01/15 06:02:03;;;;;;;3.17;1.40;;;;;;;13.31;56.54;98631.88;5068374;28;20035;-71
2023/01/15 06:04:29;;;;;;;3.50;1.30;;;;;;;13.23;56.89;98634.13;5095818;28;20032;-72
2023/01/15 06:06:56;;;;;;;1.83;1.20;;;;;;;13.28;56.88;98632.94;5060098;28;20472;-72
2023/01/15 06:09:23;;;;;;;2.85;1.33;;;;;;;13.25;56.83;98635.75;5058129;28;20077;-72
2023/01/15 06:11:49;;;;;;;4.03;1.63;;;;;;;11.97;60.14;98633.44;5056144;28;20039;-72
2023/01/15 06:14:15;;;;;;;2.20;1.50;;;;;;;11.90;60.62;98636.47;5037501;28;20036;-72
2023/01/15 06:16:41;;;;;;;2.72;1.42;;;;;;;11.89;60.72;98630.38;5037570;28;20028;-73
2023/01/15 06:19:07;;;;;;;2.90;1.50;;;;;;;11.75;61.40;98632.84;5088284;28;20043;-73
2023/01/15 06:21:34;;;;;;;2.53;1.48;;;;;;;11.75;61.45;98630.22;5057019;28;20503;-72
2023/01/15 06:24:00;;;;;;;3.15;1.55;;;;;;;12.38;60.80;98635.53;5056380;28;20464;-73
2023/01/15 06:26:26;;;;;;;2.30;1.60;;;;;;;11.92;60.99;98627.56;5074530;28;20039;-72
2023/01/15 06:28:52;;;;;;;4.15;2.22;;;;;;;11.70;61.84;98635.75;5040603;28;20056;-72
2023/01/15 06:31:21;;;;;;;2.70;1.67;;;;;;;11.64;62.30;98629.94;5055980;28;20532;-72
2023/01/15 06:33:47;;;;;;;4.20;1.77;;;;;;;11.49;62.86;98631.59;5057233;28;20116;-72
2023/01/15 06:36:20;;;;;;;2.85;1.40;;;;;;;11.76;62.32;98632.75;5056155;28;20028;-72
2023/01/15 06:38:46;;;;;;;3.45;1.60;;;;;;;11.54;62.62;98630.44;5051508;28;20029;-72
2023/01/15 06:49:40;;;;;;;4.03;1.77;;;;;;;11.63;62.81;98638.78;5036999;28;20051;-72
2023/01/15 06:52:06;;;;;;;3.22;1.67;;;;;;;11.61;62.95;98636.25;5072221;28;20025;-72
2023/01/15 06:54:32;;;;;;;4.18;1.80;;;;;;;11.66;62.74;98628.09;5088791;28;20069;-72
2023/01/15 06:56:58;;;;;;;3.30;1.75;;;;;;;11.53;63.35;98639.28;5039379;28;20032;-73
2023/01/15 06:59:24;;;;;;;2.65;1.48;;;;;;;11.61;63.08;98625.72;5054862;28;20032;-72
2023/01/15 07:01:49;;;;;;;3.53;1.77;;;;;;;12.39;59.88;98626.69;5038578;28;20048;-72
2023/01/15 07:04:15;;;;;;;3.05;1.65;;;;;;;11.71;62.68;98626.91;5055592;28;20042;-73
2023/01/15 07:06:41;;;;;;;2.58;1.45;;;;;;;11.66;63.07;98617.59;5058600;28;20447;-72
2023/01/15 07:09:06;;;;;;;3.00;1.80;;;;;;;12.85;60.17;98625.81;5071496;28;20028;-73
2023/01/15 07:11:32;;;;;;;4.43;2.25;;;;;;;11.95;62.05;98626.53;5054679;28;20037;-73
2023/01/15 07:14:06;;;;;;;3.63;1.88;;;;;;;11.91;62.27;98627.66;5055584;28;20060;-72
2023/01/15 07:16:33;;;;;;;3.22;1.67;;;;;;;11.87;62.53;98626.97;5088942;28;20170;-73
2023/01/15 07:18:59;;;;;;;2.22;1.50;;;;;;;11.85;62.93;98631.47;5055390;28;20075;-72
2023/01/15 07:21:25;;;;;;;2.85;1.60;;;;;;;11.92;62.39;98629.34;5054790;28;20032;-72
2023/01/15 07:23:52;;;;;;;3.20;1.77;;;;;;;11.83;62.69;98625.44;5054060;28;20066;-73
2023/01/15 07:26:18;;;;;;;2.65;1.65;;;;;;;11.84;62.78;98620.06;5055559;28;20052;-73
2023/01/15 07:28:43;;;;;;;3.25;1.98;;;;;;;11.86;62.74;98635.81;5055456;28;20036;-73
2023/01/15 07:31:09;;;;;;;3.38;2.00;;;;;;;11.83;62.77;98628.06;5072273;28;20045;-72
2023/01/15 07:33:34;;;;;;;2.95;1.60;;;;;;;11.86;62.83;98620.00;5038132;28;20443;-73
2023/01/15 07:36:04;;;;;;;4.07;2.28;;;;;;;11.88;62.90;98622.53;5072866;28;20032;-73
2023/01/15 07:38:31;;;;;;;5.53;2.40;;;;;;;11.88;62.98;98627.81;5055109;28;20051;-72
2023/01/15 07:51:53;;;;;;;3.90;2.45;;;;;;;12.27;61.67;98615.06;5067712;28;20442;-72
2023/01/15 07:54:19;;;;;;;4.30;3.03;;;;;;;12.16;62.18;98613.97;5052264;28;20032;-72
2023/01/15 07:56:45;;;;;;;5.85;3.15;;;;;;;12.26;61.98;98617.78;5072827;28;20115;-73
2023/01/15 07:59:10;;;;;;;5.03;2.67;;;;;;;12.22;62.25;98616.28;5083634;28;20075;-71
2023/01/15 08:01:36;;;;;;;3.90;2.40;;;;;;;12.30;62.00;98619.31;5071203;28;20087;-72
2023/01/15 08:04:01;;;;;;;4.00;2.47;;;;;;;12.16;62.34;98627.13;5070752;28;20054;-73
2023/01/15 08:06:27;;;;;;;4.20;2.72;;;;;;;13.47;59.17;98632.63;5053632;28;20028;-72
2023/01/15 08:08:52;;;;;;;3.00;1.88;;;;;;;13.64;58.46;98620.19;5051036;28;20059;-73
2023/01/15 08:16:46;;;;;;;4.95;2.17;;;;;;;13.81;57.89;98622.66;5057271;28;20097;-71
2023/01/15 08:19:11;;;;;;;3.42;1.90;;;;;;;13.84;57.83;98616.31;5035852;28;20036;-72
2023/01/15 08:21:37;;;;;;;4.35;2.28;;;;;;;13.89;57.73;98622.16;5053806;28;20060;-73
2023/01/15 08:24:02;;;;;;;3.47;1.90;;;;;;;13.91;57.78;98620.25;5053709;28;20082;-72
2023/01/15 08:26:28;;;;;;;2.88;1.90;;;;;;;13.95;57.61;98616.47;5072821;28;20029;-72
2023/01/15 08:28:54;;;;;;;3.13;1.90;;;;;;;14.07;57.29;98613.06;5071710;28;20033;-72
2023/01/15 08:31:19;;;;;;;3.15;2.05;;;;;;;14.14;57.38;98621.44;5024989;28;20380;-72
2023/01/15 08:33:44;;;;;;;2.33;1.55;;;;;;;14.18;57.20;98604.47;5054009;28;20036;-72
2023/01/15 08:36:14;;;;;;;4.45;2.20;;;;;;;14.20;57.21;98608.72;5070487;28;20033;-71
2023/01/15 08:38:40;;;;;;;4.03;2.30;;;;;;;14.22;57.18;98613.88;5086409;28;20148;-72
2023/01/15 08:41:05;;;;;;;7.45;3.58;;;;;;;14.22;57.24;98614.72;5070528;28;20144;-72
2023/01/15 08:43:34;;;;;;;6.38;3.67;;;;;;;14.13;57.59;98610.03;5054275;28;20043;-72
2023/01/15 08:46:01;;;;;;;6.30;3.65;;;;;;;14.19;57.39;98616.72;5054211;28;20075;-72
2023/01/15 08:48:29;;;;;;;5.38;3.38;;;;;;;14.25;57.27;98619.81;5053290;28;20033;-72
2023/01/15 08:50:55;;;;;;;4.63;3.30;;;;;;;14.31;57.18;98613.28;5054348;28;20047;-71
2023/01/15 08:53:20;;;;;;;4.68;3.22;;;;;;;14.28;57.22;98621.41;5057087;28;20040;-72
2023/01/15 08:55:47;;;;;;;5.28;2.67;;;;;;;14.33;57.21;98616.69;5023222;28;20040;-72
2023/01/15 08:58:14;;;;;;;6.47;3.95;;;;;;;14.34;57.16;98613.09;5057134;28;20048;-72
2023/01/15 09:00:40;;;;;;;8.50;5.65;;;;;;;14.34;57.31;98606.97;5057169;28;20036;-72
2023/01/15 09:03:06;;;;;;;7.28;4.60;;;;;;;14.37;57.32;98614.69;5057816;28;20135;-72
2023/01/15 09:05:31;;;;;;;7.20;4.38;;;;;;;14.37;57.33;98615.53;5074990;28;20029;-73
2023/01/15 09:07:57;;;;;;;9.38;5.15;;;;;;;14.26;57.70;98632.06;5075133;28;20033;-72
2023/01/15 09:10:23;;;;;;;5.55;3.38;;;;;;;14.01;58.22;98651.28;5025123;28;20036;-72
2023/01/15 09:12:48;;;;;;;4.05;2.35;;;;;;;13.39;59.38;98669.19;5075241;28;20384;-71
2023/01/15 09:15:14;;;;;;;2.38;1.27;;;;;;;12.90;61.29;98677.34;5075003;28;20098;-73
2023/01/15 09:17:40;;;;;;;3.00;1.10;;;;;;;12.39;63.07;98689.91;5057228;28;20123;-73
2023/01/15 09:20:08;;;;;;;4.05;1.95;;;;;;;12.12;63.64;98696.69;5040312;28;20044;-73
2023/01/15 09:22:34;;;;;;;3.10;1.80;;;;;;;12.08;64.18;98691.59;5057130;28;20044;-73
2023/01/15 09:24:59;;;;;;;2.55;1.50;;;;;;;11.89;63.47;98696.16;5085706;28;20040;-73
2023/01/15 09:27:29;;;;;;;2.58;1.42;;;;;;;11.71;63.53;98691.84;5085839;28;20032;-72
2023/01/15 09:29:55;;;;;;;2.15;1.30;;;;;;;11.64;63.81;98690.47;5064601;28;20056;-73
2023/01/15 09:32:22;;;;;;;4.07;1.33;;;;;;;11.35;63.85;98688.41;5041147;28;20028;-72
2023/01/15 09:34:47;;;;;;;3.83;1.83;;;;;;;11.54;63.82;98690.09;5041651;28;20535;-73
2023/01/15 09:37:13;;;;;;;2.13;1.48;;;;;;;11.56;63.50;98696.97;5074046;28;20033;-74
2023/01/15 09:39:39;;;;;;;4.38;2.17;;;;;;;11.37;63.93;98698.88;5040913;28;20051;-74
2023/01/15 09:42:20;;;;;;;4.40;2.40;;;;;;;11.57;63.77;98711.00;5057109;28;20037;-74
2023/01/15 09:45:10;;;;;;;8.02;3.70;;;;;;;11.52;63.72;98705.09;5057969;28;20086;-73
2023/01/15 09:47:46;;;;;;;9.70;4.10;;;;;;;11.45;63.34;98704.59;5084520;28;20025;-74
2023/01/15 09:50:23;;;;;;;9.45;3.42;;;;;;;11.42;63.16;98711.78;5056899;28;20032;-74
2023/01/15 09:52:48;;;;;;;8.80;3.28;;;;;;;11.07;62.53;98714.41;5079883;28;20028;-73
2023/01/15 09:55:19;;;;;;;9.90;2.97;;;;;;;11.34;63.02;98706.91;5076400;28;20090;-75
2023/01/15 09:57:50;;;;;;;10.88;3.65;;;;;;;11.27;62.56;98702.91;5055598;28;20502;-74
2023/01/15 10:00:25;;;;;;;7.88;2.90;;;;;;;11.36;62.35;98705.03;5072641;28;20028;-74
2023/01/15 10:03:09;;;;;;;6.80;2.63;;;;;;;11.48;61.96;98693.88;5073594;28;20044;-73
2023/01/15 10:05:45;;;;;;;8.73;4.57;;;;;;;11.03;61.05;98702.34;5074660;28;20399;-73
2023/01/15 10:08:18;;;;;;;10.75;3.83;;;;;;;11.08;61.86;98714.31;5073288;28;20044;-73
2023/01/15 10:10:47;;;;;;;6.05;2.22;;;;;;;10.95;61.74;98710.63;5058653;28;20040;-73
2023/01/15 10:13:40;;;;;;;9.38;3.20;;;;;;;11.00;61.41;98716.47;5056309;28;20430;-74
2023/01/15 10:16:07;;;;;;;;;;;;;;;10.58;62.80;98733.44;5056946;28;20399;-74
2023/01/15 10:18:32;;;;;;;6.15;2.35;;;;;;;9.77;64.25;98728.41;5074020;28;20028;-74
2023/01/15 10:21:07;;;;;;;6.82;2.85;;;;;;;10.99;61.92;98733.19;5072604;28;20495;-72
2023/01/15 10:23:37;;;;;;;7.53;2.50;;;;;;;11.21;61.61;98737.38;5075371;28;20107;-72
2023/01/15 10:26:16;;;;;;;4.45;1.50;;;;;;;11.08;60.90;98724.84;5057393;28;20070;-73
2023/01/15 10:28:56;;;;;;;2.80;1.20;;;;;;;11.30;60.67;98723.78;5055874;28;20068;-72
2023/01/15 10:31:36;;;;;;;2.58;1.40;;;;;;;11.17;60.74;98728.81;5057435;28;20063;-73
2023/01/15 10:34:29;;;;;;;3.35;1.70;;;;;;;11.30;60.20;98715.88;5056852;28;20495;-72
2023/01/15 10:37:18;;;;;;;4.93;1.10;;;;;;;11.29;60.15;98722.06;5073633;28;20395;-72
2023/01/15 10:40:16;;;;;;;2.70;1.30;;;;;;;11.39;60.42;98715.41;5050724;28;20264;-72
2023/01/15 10:43:06;;;;;;;1.42;0.88;;;;;;;11.70;59.94;98703.31;5058211;28;20028;-72
2023/01/15 10:45:52;;;;;;;1.67;1.00;;;;;;;11.87;59.34;98687.50;5074725;28;20071;-71
2023/01/15 10:48:28;;;;;;;2.90;0.90;;;;;;;11.99;59.39;98693.88;5055182;28;20028;-71
2023/01/15 10:50:55;;;;;;;2.15;0.63;;;;;;;12.15;58.95;98694.75;5056757;28;20086;-72
2023/01/15 10:53:29;;;;;;;2.90;1.20;;;;;;;12.19;59.01;98703.31;5040149;28;20036;-72
2023/01/15 10:56:09;;;;;;;3.80;1.40;;;;;;;12.32;58.83;98702.56;5074674;28;20029;-72
2023/01/15 10:58:41;;;;;;;2.10;0.90;;;;;;;12.46;58.29;98693.91;5056831;28;20075;-72
2023/01/15 11:01:17;;;;;;;3.40;1.10;;;;;;;12.64;57.88;98691.16;5074803;28;20060;-72
2023/01/15 11:03:43;;;;;;;4.00;2.05;;;;;;;12.54;57.82;98702.22;5074493;28;20140;-72
2023/01/15 11:06:21;;;;;;;4.82;1.98;;;;;;;12.41;57.64;98703.84;5074414;28;20108;-71
2023/01/15 11:08:52;;;;;;;2.70;1.23;;;;;;;12.23;57.88;98713.59;5056618;28;20094;-72
2023/01/15 11:19:43;;;;;;;2.67;1.10;;;;;;;11.70;58.37;98732.25;5074244;28;20028;-73
2023/01/15 11:22:15;;;;;;;2.33;1.45;;;;;;;11.65;58.29;98729.84;5040049;28;20135;-72
2023/01/15 11:25:00;;;;;;;2.72;1.13;;;;;;;11.74;58.74;98733.78;5074091;28;20032;-72
2023/01/15 11:27:34;;;;;;;2.00;1.02;;;;;;;11.80;58.65;98738.72;5056279;28;20032;-72
2023/01/15 11:30:04;;;;;;;2.97;1.20;;;;;;;11.50;59.11;98747.28;5036408;28;20061;-73
2023/01/15 11:32:35;;;;;;;3.22;0.90;;;;;;;11.86;58.70;98756.00;5036210;28;20035;-72
2023/01/15 11:35:15;;;;;;;3.10;1.15;;;;;;;11.89;58.22;98747.94;5054056;28;20037;-74
2023/01/15 11:37:40;;;;;;;1.83;1.00;;;;;;;11.93;58.44;98752.97;5053990;28;20069;-73
2023/01/15 11:40:19;;;;;;;2.78;1.40;;;;;;;12.03;58.13;98748.06;5053832;28;20067;-74
2023/01/15 11:51:28;;;;;;;4.90;1.90;;;;;;;12.29;57.52;98723.81;5073283;28;20050;-72
2023/01/15 11:53:59;;;;;;;2.65;1.42;;;;;;;11.79;58.04;98734.38;5036851;28;20055;-72
2023/01/15 11:56:28;;;;;;;2.58;1.33;;;;;;;11.84;57.66;98737.66;5055116;28;20086;-72
2023/01/15 11:59:01;;;;;;;14.10;6.45;;;;;;;11.52;57.97;98726.16;5055370;28;20102;-73
2023/01/15 12:01:36;;;;;;;8.35;4.25;;;;;;;11.64;57.36;98741.28;5072988;28;21635;-73
2023/01/15 12:04:26;;;;;;;34.42;20.10;;;;;;;11.91;57.32;98723.25;5054594;28;20040;-72
2023/01/15 12:06:52;;;;;;;35.42;23.48;;;;;;;11.98;57.24;98703.56;5073658;28;20037;-71
2023/01/15 12:09:41;;;;;;;9.27;6.32;;;;;;;12.24;56.62;98698.66;5038641;28;20041;-72
2023/01/15 12:12:12;;;;;;;7.13;4.55;;;;;;;12.48;56.34;98697.28;5053476;28;20028;-72
2023/01/15 12:15:05;;;;;;;7.20;4.80;;;;;;;12.75;55.96;98688.75;5055278;28;20036;-72
2023/01/15 12:17:54;;;;;;;10.30;7.32;;;;;;;12.97;55.32;98691.88;5053660;28;20033;-71
2023/01/15 12:20:36;;;;;;;13.75;8.65;;;;;;;13.12;55.20;98690.09;5054646;28;20032;-71
2023/01/15 12:23:27;;;;;;;12.88;7.07;;;;;;;13.20;55.12;98689.66;5053090;28;20036;-71
2023/01/15 12:26:16;;;;;;;8.32;5.28;;;;;;;13.25;54.87;98692.91;5057429;28;20036;-71
2023/01/15 12:29:03;;;;;;;7.68;4.80;;;;;;;13.30;54.62;98707.53;5079108;28;20396;-72
2023/01/15 12:31:51;;;;;;;7.55;4.97;;;;;;;13.32;54.41;98707.41;5061480;28;20044;-72
2023/01/15 12:34:23;;;;;;;10.18;5.57;;;;;;;13.33;54.78;98703.88;5060242;28;20036;-72
2023/01/15 12:37:01;;;;;;;16.88;8.90;;;;;;;13.27;54.57;98707.69;5062114;28;20029;-72
2023/01/15 12:39:30;;;;;;;24.23;13.15;;;;;;;13.27;54.78;98699.78;5067733;28;20032;-71
2023/01/15 12:45:00;;;;;;;30.02;15.93;;;;;;;13.19;54.73;98699.34;5080043;28;20031;-74